Time;durP1;ratioP1;P1;durP2;ratioP2;P2;SDS_P1;SDS_P2;PMS_P1;PMS_P2;Temp;Humidity;BMP_temperature;BMP_pressure;BME280_temperature;BME280_humidity;BME280_pressure;Samples;Min_cycle;Max_cycle;Signal;HPM_P1;HPM_P2
2023/08/09 00:01:20;;;;;;;1.47;1.37;;;14.70;99.90;;;;;;6076984;23;20161;-74
2023/08/09 00:03:45;;;;;;;2.00;1.30;;;14.70;99.90;;;;;;6051350;23;20212;-72
2023/08/09 00:06:11;;;;;;;2.10;1.60;;;14.70;99.90;;;;;;6076341;23;20149;-73
2023/08/09 00:08:36;;;;;;;2.97;1.53;;;14.70;99.90;;;;;;6051706;23;20171;-73
2023/08/09 00:11:02;;;;;;;1.60;1.40;;;14.70;99.90;;;;;;6062988;23;20194;-72
2023/08/09 00:13:28;;;;;;;1.80;1.40;;;14.70;99.90;;;;;;6138718;23;20193;-74
2023/08/09 00:15:54;;;;;;;1.70;1.47;;;14.70;99.90;;;;;;6138543;23;20214;-74
2023/08/09 00:18:20;;;;;;;1.77;1.50;;;14.70;99.90;;;;;;6137798;23;20613;-73
2023/08/09 00:20:46;;;;;;;1.53;1.37;;;14.70;99.90;;;;;;6137959;23;20203;-73
2023/08/09 00:23:13;;;;;;;2.03;1.47;;;14.70;99.90;;;;;;6139802;23;20367;-73
2023/08/09 00:25:40;;;;;;;2.03;1.83;;;14.70;99.90;;;;;;6140456;23;20157;-73
2023/08/09 00:28:07;;;;;;;2.90;2.40;;;14.70;99.90;;;;;;6141351;23;20418;-73
2023/08/09 00:30:33;;;;;;;2.57;2.27;;;14.70;99.90;;;;;;6139287;23;20395;-73
2023/08/09 00:32:59;;;;;;;2.63;2.37;;;14.70;99.90;;;;;;6139537;23;20375;-74
2023/08/09 00:35:25;;;;;;;3.33;2.77;;;14.70;99.90;;;;;;6114968;23;20454;-72
2023/08/09 00:37:51;;;;;;;3.10;2.80;;;14.70;99.90;;;;;;6114636;23;20434;-73
2023/08/09 00:40:17;;;;;;;3.80;3.00;;;14.70;99.90;;;;;;6163096;23;20177;-74
2023/08/09 00:42:42;;;;;;;3.03;2.53;;;14.70;99.90;;;;;;6136211;23;20136;-72
2023/08/09 00:45:09;;;;;;;3.57;2.40;;;14.70;99.90;;;;;;6162699;23;20430;-73
2023/08/09 00:47:36;;;;;;;3.73;2.80;;;14.80;99.90;;;;;;6136414;23;20151;-74
2023/08/09 00:50:02;;;;;;;3.80;3.00;;;14.80;99.90;;;;;;6138234;23;20398;-73
2023/08/09 00:52:28;;;;;;;2.70;2.40;;;14.80;99.90;;;;;;6137874;23;20371;-73
2023/08/09 00:54:54;;;;;;;3.83;2.90;;;14.80;99.90;;;;;;6140557;23;20406;-73
2023/08/09 00:57:20;;;;;;;3.03;2.73;;;14.80;99.90;;;;;;6139628;23;20428;-71
2023/08/09 00:59:45;;;;;;;3.67;3.00;;;14.80;99.90;;;;;;6140065;23;20171;-72
2023/08/09 01:02:11;;;;;;;3.07;2.77;;;14.80;99.90;;;;;;6164469;23;20430;-73
2023/08/09 01:04:38;;;;;;;2.83;2.60;;;14.80;99.90;;;;;;6165677;23;20132;-73
2023/08/09 01:07:33;;;;;;;4.40;3.10;;;14.80;99.90;;;;;;6114084;23;20367;-73
2023/08/09 01:10:15;;;;;;;3.00;2.67;;;14.90;99.90;;;;;;6165226;23;20877;-72
2023/08/09 01:12:47;;;;;;;3.43;2.40;;;14.90;99.90;;;;;;6165280;23;20366;-72
2023/08/09 01:15:16;;;;;;;2.90;2.53;;;14.90;99.90;;;;;;6116195;23;20383;-72
2023/08/09 01:17:47;;;;;;;3.63;2.90;;;14.90;99.90;;;;;;6165236;23;20406;-73
2023/08/09 01:20:13;;;;;;;5.50;3.20;;;14.90;99.90;;;;;;6138817;23;20395;-72
2023/08/09 01:22:46;;;;;;;3.97;3.60;;;14.90;99.90;;;;;;6164808;23;20363;-72
2023/08/09 01:25:12;;;;;;;4.67;3.80;;;14.90;99.90;;;;;;6138266;23;20858;-72
2023/08/09 01:27:38;;;;;;;5.03;3.47;;;14.90;99.90;;;;;;6138340;23;20426;-72
2023/08/09 01:30:06;;;;;;;4.10;3.43;;;14.90;99.90;;;;;;6138511;23;20218;-73
2023/08/09 01:32:33;;;;;;;5.10;3.90;;;14.90;99.90;;;;;;6115089;23;20147;-73
2023/08/09 01:34:59;;;;;;;5.70;4.43;;;14.90;99.90;;;;;;6139675;23;20367;-73
2023/08/09 01:37:41;;;;;;;7.27;5.10;;;14.80;99.90;;;;;;6114689;23;20466;-72
2023/08/09 01:40:09;;;;;;;7.00;4.80;;;14.80;99.90;;;;;;6139656;23;20458;-73
2023/08/09 01:42:36;;;;;;;7.53;6.03;;;14.80;99.90;;;;;;6163149;23;20371;-73
2023/08/09 01:45:04;;;;;;;10.47;6.90;;;14.80;99.90;;;;;;6165026;23;20359;-73
2023/08/09 01:47:30;;;;;;;8.47;6.00;;;14.80;99.90;;;;;;6113076;23;20422;-74
2023/08/09 01:49:55;;;;;;;8.10;5.67;;;14.80;99.90;;;;;;6164262;23;20656;-72
2023/08/09 01:52:21;;;;;;;9.50;6.17;;;14.90;99.90;;;;;;6163177;23;20135;-73
2023/08/09 01:54:46;;;;;;;12.07;7.17;;;14.90;99.90;;;;;;6163201;23;20155;-73
2023/08/09 01:57:12;;;;;;;9.40;6.40;;;14.90;99.90;;;;;;6163092;23;20414;-72
2023/08/09 01:59:38;;;;;;;8.63;6.33;;;14.90;99.90;;;;;;6162815;23;20440;-72
2023/08/09 02:02:04;;;;;;;9.27;6.73;;;14.90;99.90;;;;;;6136759;23;20143;-73
2023/08/09 02:04:30;;;;;;;13.47;10.13;;;14.90;99.90;;;;;;6163218;23;20462;-72
2023/08/09 02:06:56;;;;;;;14.80;10.27;;;14.90;99.90;;;;;;6136449;23;20144;-73
2023/08/09 02:09:21;;;;;;;13.17;9.33;;;14.80;99.90;;;;;;6112371;23;20663;-73
2023/08/09 02:11:47;;;;;;;12.40;7.97;;;14.80;99.90;;;;;;6162253;23;20134;-73
2023/08/09 02:14:13;;;;;;;7.80;6.00;;;14.70;99.90;;;;;;6162675;23;20218;-72
2023/08/09 02:16:40;;;;;;;6.33;5.30;;;14.60;99.90;;;;;;6135595;23;20230;-72
2023/08/09 02:19:06;;;;;;;7.93;5.37;;;14.60;99.90;;;;;;6162497;23;20132;-72
2023/08/09 02:21:31;;;;;;;5.00;4.17;;;14.50;99.90;;;;;;6136698;23;20415;-72
2023/08/09 02:23:57;;;;;;;4.63;4.03;;;14.40;99.90;;;;;;6163368;23;20127;-72
2023/08/09 02:26:22;;;;;;;5.00;3.97;;;14.30;99.90;;;;;;6138803;23;20456;-72
2023/08/09 02:28:51;;;;;;;5.20;4.67;;;14.20;99.90;;;;;;6116082;23;20155;-73
2023/08/09 02:31:18;;;;;;;4.97;3.53;;;14.10;99.90;;;;;;6163164;23;20169;-72
2023/08/09 02:33:44;;;;;;;4.93;3.80;;;14.00;99.90;;;;;;6162711;23;20355;-72
2023/08/09 02:36:10;;;;;;;4.90;3.70;;;14.00;99.90;;;;;;6136700;23;20426;-72
2023/08/09 02:38:36;;;;;;;6.40;3.37;;;13.90;99.90;;;;;;6162093;23;20155;-72
2023/08/09 02:41:02;;;;;;;6.23;3.93;;;14.00;99.90;;;;;;6163394;23;20536;-72
2023/08/09 02:43:28;;;;;;;5.33;3.57;;;14.00;99.90;;;;;;6163314;23;20558;-71
2023/08/09 02:45:54;;;;;;;5.77;4.30;;;14.00;99.90;;;;;;6136588;23;20370;-72
2023/08/09 02:48:27;;;;;;;5.67;3.87;;;13.90;99.90;;;;;;6166701;23;20132;-75
2023/08/09 02:50:53;;;;;;;6.10;4.30;;;13.90;99.90;;;;;;6139682;23;20402;-73
2023/08/09 02:53:18;;;;;;;6.13;3.87;;;13.90;99.90;;;;;;6139147;23;20491;-71
2023/08/09 02:55:44;;;;;;;8.20;5.50;;;13.80;99.90;;;;;;6138164;23;20223;-72
2023/08/09 02:58:10;;;;;;;7.90;5.13;;;13.80;99.90;;;;;;6163176;23;20538;-73
2023/08/09 03:00:36;;;;;;;7.27;5.00;;;13.80;99.90;;;;;;6135398;23;20590;-73
2023/08/09 03:03:05;;;;;;;7.17;4.40;;;13.80;99.90;;;;;;6138289;23;20424;-74
2023/08/09 03:05:32;;;;;;;10.37;5.80;;;13.80;99.90;;;;;;6111638;23;20376;-73
2023/08/09 03:07:59;;;;;;;8.17;4.60;;;13.80;99.90;;;;;;6160685;23;20389;-73
2023/08/09 03:10:25;;;;;;;7.90;4.30;;;13.80;99.90;;;;;;6161203;23;20173;-72
2023/08/09 03:12:50;;;;;;;8.80;5.80;;;13.80;99.90;;;;;;6162074;23;20355;-73
2023/08/09 03:15:16;;;;;;;8.70;5.00;;;13.80;99.90;;;;;;6161191;23;20166;-72
2023/08/09 03:17:42;;;;;;;9.57;5.03;;;13.80;99.90;;;;;;6162240;23;20242;-73
2023/08/09 03:20:17;;;;;;;8.47;4.97;;;13.80;99.90;;;;;;6161569;23;20390;-73
2023/08/09 03:22:48;;;;;;;7.50;4.17;;;13.80;99.90;;;;;;6135659;23;20143;-72
2023/08/09 03:25:14;;;;;;;6.40;4.17;;;13.70;99.90;;;;;;6160017;23;20359;-72
2023/08/09 03:27:43;;;;;;;6.73;3.73;;;13.70;99.90;;;;;;6160356;23;20688;-72
2023/08/09 03:30:10;;;;;;;5.90;3.50;;;13.70;99.90;;;;;;6160008;23;20390;-73
2023/08/09 03:32:36;;;;;;;5.30;3.60;;;13.70;99.90;;;;;;6159396;23;20222;-72
2023/08/09 03:35:04;;;;;;;4.97;3.40;;;13.70;99.90;;;;;;6160630;23;20811;-72
2023/08/09 03:37:30;;;;;;;5.40;3.57;;;13.70;99.90;;;;;;6160353;23;20497;-72
2023/08/09 03:39:55;;;;;;;5.57;3.20;;;13.80;99.90;;;;;;6161179;23;20387;-72
2023/08/09 03:42:21;;;;;;;5.73;3.00;;;13.70;99.90;;;;;;6135642;23;20546;-72
2023/08/09 03:44:47;;;;;;;5.80;3.20;;;13.70;99.90;;;;;;6160645;23;20210;-72
2023/08/09 03:47:13;;;;;;;3.90;2.57;;;13.70;99.90;;;;;;6160734;23;20440;-71
2023/08/09 03:49:39;;;;;;;3.53;2.23;;;13.70;99.90;;;;;;6134811;23;20174;-72
2023/08/09 03:52:06;;;;;;;5.07;2.73;;;13.70;99.90;;;;;;6161396;23;20378;-71
2023/08/09 03:54:33;;;;;;;3.50;2.50;;;13.70;99.90;;;;;;6160302;23;20135;-71
2023/08/09 03:56:59;;;;;;;3.10;2.40;;;13.70;99.90;;;;;;6159537;23;20422;-72
2023/08/09 03:59:24;;;;;;;3.50;2.20;;;13.70;99.90;;;;;;6160998;23;20440;-72
2023/08/09 04:01:50;;;;;;;3.00;2.20;;;13.70;99.90;;;;;;6161601;23;20389;-72
2023/08/09 04:04:15;;;;;;;3.50;2.20;;;13.60;99.90;;;;;;6161132;23;20465;-73
2023/08/09 04:06:41;;;;;;;3.60;2.43;;;13.60;99.90;;;;;;6138415;23;20222;-72
2023/08/09 04:09:07;;;;;;;2.87;2.13;;;13.60;99.90;;;;;;6137154;23;20159;-72
2023/08/09 04:11:33;;;;;;;3.90;2.40;;;13.60;99.90;;;;;;6138525;23;20531;-72
2023/08/09 04:13:59;;;;;;;2.80;1.87;;;13.60;99.90;;;;;;6141115;23;20472;-73
2023/08/09 04:16:25;;;;;;;3.50;2.27;;;13.70;99.90;;;;;;6165173;23;20197;-74
2023/08/09 04:18:51;;;;;;;3.80;2.80;;;13.70;99.90;;;;;;6138358;23;20214;-72
2023/08/09 04:21:17;;;;;;;4.53;2.73;;;13.70;99.90;;;;;;6166009;23;20392;-73
2023/08/09 04:23:42;;;;;;;5.10;2.70;;;13.60;99.90;;;;;;6139012;23;20371;-73
2023/08/09 04:26:08;;;;;;;3.40;2.30;;;13.60;99.90;;;;;;6139571;23;20155;-73
2023/08/09 04:28:34;;;;;;;3.63;2.40;;;13.60;99.90;;;;;;6127349;23;20155;-73
2023/08/09 04:31:00;;;;;;;2.90;2.20;;;13.60;99.90;;;;;;6138118;23;20173;-73
2023/08/09 04:33:27;;;;;;;2.47;1.70;;;13.70;99.90;;;;;;6072308;23;20148;-73
2023/08/09 04:35:52;;;;;;;2.50;1.80;;;13.70;99.90;;;;;;6072540;23;20389;-74
2023/08/09 04:38:18;;;;;;;2.30;1.47;;;13.70;99.90;;;;;;6073429;23;20242;-74
2023/08/09 04:40:43;;;;;;;4.20;2.40;;;13.80;99.90;;;;;;6050374;23;20568;-74
2023/08/09 04:43:09;;;;;;;2.93;2.17;;;13.90;99.90;;;;;;6051178;23;20197;-73
2023/08/09 04:45:36;;;;;;;6.30;3.50;;;13.90;99.90;;;;;;6075027;23;20139;-73
2023/08/09 04:48:03;;;;;;;8.40;4.97;;;13.90;99.90;;;;;;6075686;23;20160;-73
2023/08/09 04:50:28;;;;;;;12.33;6.10;;;13.90;99.90;;;;;;6075539;23;20396;-73
2023/08/09 04:52:54;;;;;;;15.97;5.30;;;13.90;99.90;;;;;;6050429;23;20396;-74
2023/08/09 04:55:20;;;;;;;8.20;4.93;;;13.90;99.90;;;;;;6079975;23;20192;-73
2023/08/09 04:57:46;;;;;;;7.00;4.10;;;13.90;99.90;;;;;;6081736;23;20415;-72
2023/08/09 05:00:13;;;;;;;6.30;4.13;;;14.00;99.90;;;;;;6105115;23;20603;-73
2023/08/09 05:02:39;;;;;;;8.50;4.80;;;13.90;99.90;;;;;;6106170;23;20478;-73
2023/08/09 05:05:06;;;;;;;5.90;3.87;;;14.00;99.90;;;;;;6155948;23;20770;-73
2023/08/09 05:07:32;;;;;;;7.30;3.80;;;14.00;99.90;;;;;;6146873;23;20398;-73
2023/08/09 05:10:00;;;;;;;8.50;3.70;;;14.00;99.90;;;;;;6173073;23;20394;-74
2023/08/09 05:12:25;;;;;;;6.77;2.97;;;14.10;99.90;;;;;;6174385;23;20378;-73
2023/08/09 05:14:51;;;;;;;7.00;3.33;;;14.10;99.90;;;;;;6173668;23;20518;-74
2023/08/09 05:17:16;;;;;;;5.47;3.20;;;14.20;99.90;;;;;;6143821;23;20208;-74
2023/08/09 05:19:42;;;;;;;6.07;2.70;;;14.20;99.90;;;;;;6165218;23;20198;-73
2023/08/09 05:22:08;;;;;;;4.40;2.50;;;14.30;99.90;;;;;;6166643;23;20578;-75
2023/08/09 05:24:33;;;;;;;4.87;3.43;;;14.40;99.90;;;;;;6142488;23;20182;-74
2023/08/09 05:26:59;;;;;;;8.47;5.00;;;14.30;99.90;;;;;;6144093;23;20194;-75
2023/08/09 05:29:26;;;;;;;8.13;4.87;;;14.20;99.90;;;;;;6170841;23;20146;-73
2023/08/09 05:31:52;;;;;;;7.43;4.87;;;14.20;99.90;;;;;;6143905;23;20375;-73
2023/08/09 05:34:18;;;;;;;7.93;4.70;;;14.30;99.90;;;;;;6160950;23;20155;-74
2023/08/09 05:36:44;;;;;;;5.87;3.87;;;14.40;99.90;;;;;;6169765;23;20216;-73
2023/08/09 05:39:12;;;;;;;6.50;4.10;;;14.40;99.90;;;;;;6142792;23;20181;-76
2023/08/09 05:41:39;;;;;;;5.13;3.50;;;14.40;99.90;;;;;;6146290;23;20379;-76
2023/08/09 05:44:05;;;;;;;6.10;3.90;;;14.50;99.90;;;;;;6147758;23;20899;-74
2023/08/09 05:46:31;;;;;;;8.10;4.93;;;14.60;99.90;;;;;;6147197;23;20387;-75
2023/08/09 05:48:57;;;;;;;7.13;4.93;;;15.00;99.90;;;;;;6146966;23;20372;-77
2023/08/09 05:51:25;;;;;;;6.00;4.80;;;15.50;99.90;;;;;;6172968;23;20170;-74
2023/08/09 05:53:51;;;;;;;5.60;5.00;;;15.70;99.90;;;;;;6144787;23;20434;-75
2023/08/09 05:56:19;;;;;;;5.40;4.60;;;15.50;99.90;;;;;;6119339;23;20508;-74
2023/08/09 05:58:45;;;;;;;5.27;4.17;;;15.30;99.90;;;;;;6146369;23;20454;-75
2023/08/09 06:01:11;;;;;;;5.03;3.53;;;15.10;99.90;;;;;;6171831;23;20395;-76
2023/08/09 06:03:39;;;;;;;7.23;4.20;;;15.00;99.90;;;;;;6149645;23;20362;-76
2023/08/09 06:06:10;;;;;;;4.90;3.60;;;14.80;99.90;;;;;;6149490;23;20154;-74
2023/08/09 06:08:37;;;;;;;4.30;3.17;;;14.80;99.90;;;;;;6172054;23;20387;-74
2023/08/09 06:11:03;;;;;;;4.60;3.50;;;14.80;99.90;;;;;;6173234;23;20453;-75
2023/08/09 06:13:30;;;;;;;4.30;3.53;;;14.90;99.90;;;;;;6172956;23;20386;-76
2023/08/09 06:15:56;;;;;;;3.50;3.17;;;15.00;99.90;;;;;;6146674;23;20469;-74
2023/08/09 06:18:24;;;;;;;3.73;3.43;;;15.00;99.90;;;;;;6124755;23;20146;-74
2023/08/09 06:20:56;;;;;;;3.77;2.73;;;15.20;99.90;;;;;;6171419;23;20402;-77
2023/08/09 06:23:23;;;;;;;3.30;2.83;;;15.30;99.90;;;;;;6175915;23;20461;-75
2023/08/09 06:25:50;;;;;;;4.90;4.27;;;15.30;99.90;;;;;;6130510;23;20386;-73
2023/08/09 06:28:17;;;;;;;4.63;4.23;;;15.40;99.90;;;;;;6079445;23;20431;-77
2023/08/09 06:30:50;;;;;;;3.97;3.67;;;15.40;99.90;;;;;;6146929;23;20464;-77
2023/08/09 06:33:24;;;;;;;4.83;4.03;;;15.40;99.90;;;;;;6094463;23;20207;-77
2023/08/09 06:36:22;;;;;;;4.40;3.93;;;15.30;99.90;;;;;;6090439;23;20386;-77
2023/08/09 06:38:48;;;;;;;5.63;5.00;;;15.30;99.90;;;;;;6081245;23;20579;-74
2023/08/09 06:41:15;;;;;;;5.80;5.20;;;15.30;99.90;;;;;;6088955;23;20482;-75
2023/08/09 06:43:41;;;;;;;6.93;6.17;;;15.50;99.90;;;;;;6063637;23;20381;-75
2023/08/09 06:46:06;;;;;;;10.00;9.00;;;15.60;99.90;;;;;;6060404;23;20157;-75
2023/08/09 06:48:33;;;;;;;10.33;9.23;;;15.60;99.90;;;;;;6085907;23;20150;-74
2023/08/09 06:51:00;;;;;;;8.90;7.73;;;15.50;99.90;;;;;;6085354;23;20177;-76
2023/08/09 06:53:26;;;;;;;11.50;10.30;;;15.50;99.90;;;;;;6063128;23;20490;-77
2023/08/09 06:55:52;;;;;;;9.57;8.67;;;15.70;99.90;;;;;;6062929;23;20410;-76
2023/08/09 06:58:20;;;;;;;11.70;8.23;;;15.50;99.90;;;;;;6084378;23;20404;-73
2023/08/09 07:00:46;;;;;;;9.73;8.40;;;15.30;99.90;;;;;;6061351;23;20188;-76
2023/08/09 07:03:12;;;;;;;9.73;8.60;;;15.50;99.90;;;;;;6066076;23;20366;-76
2023/08/09 07:05:38;;;;;;;10.40;9.40;;;15.60;99.90;;;;;;6090578;23;20441;-76
2023/08/09 07:08:09;;;;;;;8.73;8.03;;;15.40;99.90;;;;;;6143588;23;20396;-74
2023/08/09 07:10:38;;;;;;;7.73;7.03;;;15.20;99.90;;;;;;6093980;23;20392;-75
2023/08/09 07:13:08;;;;;;;9.73;8.73;;;15.10;99.90;;;;;;6119134;23;20361;-75
2023/08/09 07:15:37;;;;;;;10.47;9.37;;;15.20;99.90;;;;;;6142983;23;20370;-76
2023/08/09 07:18:06;;;;;;;11.97;10.73;;;15.20;99.90;;;;;;6120385;23;20407;-76
2023/08/09 07:20:35;;;;;;;10.97;9.60;;;15.20;99.90;;;;;;6126571;23;20463;-78
2023/08/09 07:23:22;;;;;;;10.40;8.73;;;15.30;99.90;;;;;;6103592;23;20384;-76
2023/08/09 07:25:51;;;;;;;11.87;9.63;;;15.40;99.90;;;;;;6124839;23;20376;-78
2023/08/09 07:28:18;;;;;;;10.30;9.30;;;15.60;99.90;;;;;;6127093;23;20419;-77
2023/08/09 07:30:44;;;;;;;10.10;9.20;;;15.70;99.90;;;;;;6152237;23;20411;-77
2023/08/09 07:33:21;;;;;;;8.97;8.03;;;15.50;99.90;;;;;;6101739;23;20384;-78
2023/08/09 07:35:57;;;;;;;13.90;10.27;;;15.40;99.90;;;;;;6068667;23;20370;-77
2023/08/09 07:38:30;;;;;;;8.20;7.40;;;15.30;99.90;;;;;;6045741;23;20372;-77
2023/08/09 07:40:56;;;;;;;7.93;7.13;;;15.30;99.90;;;;;;6043399;23;20414;-76
2023/08/09 07:43:22;;;;;;;7.13;6.43;;;15.30;99.90;;;;;;6042948;23;20371;-78
2023/08/09 07:45:51;;;;;;;5.97;5.47;;;15.50;99.90;;;;;;6064902;23;20367;-78
2023/08/09 07:48:20;;;;;;;7.10;6.40;;;15.80;99.90;;;;;;6042384;23;20388;-77
2023/08/09 07:50:50;;;;;;;7.90;6.53;;;15.90;99.90;;;;;;6068022;23;20471;-77
2023/08/09 07:53:42;;;;;;;6.63;6.03;;;16.00;99.90;;;;;;6044926;23;20181;-75
2023/08/09 07:56:08;;;;;;;8.60;6.43;;;16.30;99.90;;;;;;6087788;23;20498;-73
2023/08/09 07:58:34;;;;;;;5.73;5.23;;;16.50;99.90;;;;;;6062671;23;20365;-74
2023/08/09 08:01:04;;;;;;;6.70;6.10;;;16.80;99.90;;;;;;6064528;23;20411;-74
2023/08/09 08:03:33;;;;;;;7.23;5.37;;;17.10;99.90;;;;;;6039595;23;20142;-76
2023/08/09 08:06:00;;;;;;;6.63;6.13;;;17.50;99.90;;;;;;6088594;23;20376;-74
2023/08/09 08:08:27;;;;;;;6.17;5.67;;;17.80;99.90;;;;;;6037785;23;20449;-75
2023/08/09 08:10:57;;;;;;;6.53;5.93;;;18.10;99.90;;;;;;6038954;23;20433;-75
2023/08/09 08:13:26;;;;;;;9.93;5.60;;;18.30;99.90;;;;;;6097580;23;20411;-77
2023/08/09 08:16:04;;;;;;;8.83;5.63;;;18.40;99.90;;;;;;6150053;23;20367;-77
2023/08/09 08:21:05;;;;;;;4.93;4.43;;;18.60;99.90;;;;;;6198615;23;20671;-75
2023/08/09 08:24:09;;;;;;;5.13;4.73;;;18.60;99.90;;;;;;6184021;23;20349;-77
2023/08/09 08:26:47;;;;;;;9.53;5.90;;;18.40;99.90;;;;;;6209189;23;20153;-77
2023/08/09 08:29:36;;;;;;;5.90;5.40;;;18.30;99.90;;;;;;6123257;23;20395;-77
2023/08/09 08:32:11;;;;;;;5.13;4.73;;;18.30;99.90;;;;;;6124204;23;20375;-77
2023/08/09 08:34:40;;;;;;;5.80;5.30;;;18.20;99.90;;;;;;6150076;23;20347;-76
2023/08/09 08:37:10;;;;;;;5.70;5.20;;;18.20;99.90;;;;;;6148936;23;20450;-76
2023/08/09 08:39:41;;;;;;;4.93;4.53;;;18.20;99.90;;;;;;6039700;23;20509;-75
2023/08/09 08:42:12;;;;;;;5.27;4.50;;;18.30;99.90;;;;;;6039698;23;20381;-76
2023/08/09 08:45:11;;;;;;;6.47;5.30;;;18.30;99.90;;;;;;6137860;23;20440;-76
2023/08/09 08:48:05;;;;;;;4.70;4.30;;;18.40;99.90;;;;;;6197676;23;20435;-76
2023/08/09 08:50:32;;;;;;;5.03;4.63;;;18.40;99.90;;;;;;6241507;23;20381;-77
2023/08/09 08:53:11;;;;;;;4.80;4.30;;;18.50;99.90;;;;;;6165489;23;20389;-75
2023/08/09 08:55:45;;;;;;;5.67;4.30;;;18.60;99.90;;;;;;6215427;23;20361;-77
2023/08/09 08:58:31;;;;;;;4.37;3.97;;;18.60;99.90;;;;;;6149270;23;20419;-77
2023/08/09 09:01:04;;;;;;;3.83;3.43;;;18.60;99.90;;;;;;6124609;23;20462;-77
2023/08/09 09:04:08;;;;;;;3.37;3.07;;;18.60;99.90;;;;;;6125460;23;20384;-76
2023/08/09 09:06:55;;;;;;;3.70;3.40;;;18.70;99.90;;;;;;6148317;23;20441;-76
2023/08/09 09:09:36;;;;;;;3.37;3.07;;;18.90;99.90;;;;;;6125841;23;20351;-76
2023/08/09 09:12:02;;;;;;;3.40;2.87;;;19.10;99.90;;;;;;6090609;23;20412;-77
2023/08/09 09:14:35;;;;;;;5.17;3.43;;;19.30;99.90;;;;;;6090620;23;20456;-77
2023/08/09 09:17:01;;;;;;;4.20;3.80;;;19.40;99.90;;;;;;6068695;23;20447;-78
2023/08/09 09:19:54;;;;;;;3.93;3.47;;;19.50;99.90;;;;;;6097322;23;20439;-78
2023/08/09 09:25:19;;;;;;;3.27;2.97;;;19.90;95.70;;;;;;6205034;23;20421;-77
2023/08/09 09:28:29;;;;;;;3.33;3.03;;;20.00;95.80;;;;;;6188215;23;20397;-78
2023/08/09 09:31:05;;;;;;;3.70;3.40;;;20.30;90.90;;;;;;6130878;23;20396;-77
2023/08/09 09:33:52;;;;;;;5.07;3.50;;;20.50;91.20;;;;;;6138258;23;20396;-78
2023/08/09 09:36:19;;;;;;;3.47;3.17;;;20.70;76.70;;;;;;6184717;23;20421;-78
2023/08/09 09:39:12;;;;;;;3.93;3.63;;;20.70;81.50;;;;;;6185079;23;20369;-77
2023/08/09 09:41:58;;;;;;;3.40;2.30;;;20.80;81.00;;;;;;6161553;23;20377;-77
2023/08/09 09:44:25;;;;;;;3.60;3.27;;;20.80;78.50;;;;;;6186989;23;20398;-76
2023/08/09 09:47:28;;;;;;;4.00;3.60;;;20.70;78.20;;;;;;6133965;23;20439;-77
2023/08/09 09:53:41;;;;;;;5.23;3.90;;;20.40;76.20;;;;;;6200375;23;20448;-77
2023/08/09 09:56:10;;;;;;;3.47;3.17;;;20.00;75.00;;;;;;6190452;23;20449;-74
2023/08/09 10:18:40;;;;;;;2.87;2.57;;;21.10;70.90;;;;;;6184540;23;20472;-77
2023/08/09 10:25:00;;;;;;;4.53;3.47;;;21.70;60.00;;;;;;6168233;23;20439;-78
2023/08/09 10:28:01;;;;;;;5.03;4.35;;;21.70;59.20;;;;;;5488215;23;15055220;-77
2023/08/09 10:36:05;;;;;;;4.83;3.63;;;21.90;58.00;;;;;;6153783;23;20431;-77
2023/08/09 10:38:57;;;;;;;3.80;3.50;;;21.80;57.10;;;;;;6130987;23;20398;-76
2023/08/09 10:41:46;;;;;;;4.87;2.97;;;21.90;56.80;;;;;;6089195;23;20393;-77
2023/08/09 10:44:13;;;;;;;3.57;2.80;;;22.20;57.40;;;;;;6071463;23;20378;-78
2023/08/09 10:46:40;;;;;;;5.07;3.00;;;22.60;57.00;;;;;;6066216;23;20429;-77
2023/08/09 10:49:55;;;;;;;4.33;3.30;;;22.80;56.50;;;;;;6156099;23;20461;-77
2023/08/09 10:52:49;;;;;;;3.30;3.00;;;23.00;54.60;;;;;;6200402;23;20445;-77
2023/08/09 10:55:41;;;;;;;3.23;2.60;;;23.20;54.40;;;;;;6161974;23;20390;-78
2023/08/09 10:58:17;;;;;;;3.90;3.60;;;23.60;52.20;;;;;;6072324;23;20415;-78
2023/08/09 11:01:04;;;;;;;4.37;3.63;;;23.80;52.30;;;;;;6120138;23;20380;-76
2023/08/09 11:03:54;;;;;;;3.67;3.30;;;24.00;50.60;;;;;;6096354;23;20798;-77
2023/08/09 11:06:47;;;;;;;3.93;3.53;;;24.10;49.80;;;;;;6063943;23;20386;-78
2023/08/09 11:22:14;;;;;;;4.00;3.60;;;24.70;49.10;;;;;;6183213;23;20464;-78
2023/08/09 11:36:18;;;;;;;4.50;4.10;;;24.40;47.60;;;;;;6180466;23;20493;-78
2023/08/09 11:38:47;;;;;;;4.90;3.77;;;24.10;48.50;;;;;;6132164;23;20383;-78
2023/08/09 11:41:16;;;;;;;3.90;3.57;;;24.00;48.30;;;;;;6105864;23;20399;-77
2023/08/09 11:43:56;;;;;;;3.90;3.30;;;24.00;48.80;;;;;;6126433;23;20375;-78
2023/08/09 11:46:47;;;;;;;3.27;2.97;;;23.90;48.60;;;;;;6154026;22;20441;-78
2023/08/09 11:49:36;;;;;;;6.60;3.40;;;24.00;48.80;;;;;;6134162;23;20371;-76
2023/08/09 11:52:04;;;;;;;5.13;3.83;;;24.20;49.10;;;;;;6154087;23;20392;-78
2023/08/09 11:54:31;;;;;;;4.47;4.07;;;24.40;49.50;;;;;;6131934;23;20411;-79
2023/08/09 11:59:51;;;;;;;5.23;4.73;;;24.60;49.10;;;;;;6231290;23;20449;-78
2023/08/09 12:02:49;;;;;;;6.37;4.00;;;24.70;48.10;;;;;;6163004;23;20429;-80
2023/08/09 12:05:16;;;;;;;3.30;3.00;;;24.30;48.40;;;;;;6166193;23;20439;-78
2023/08/09 12:11:17;;;;;;;3.40;3.10;;;24.30;49.40;;;;;;6159381;23;20450;-78
2023/08/09 12:14:02;;;;;;;3.80;3.17;;;24.60;49.40;;;;;;6149820;23;20437;-77
2023/08/09 12:16:41;;;;;;;4.67;3.20;;;24.80;49.10;;;;;;6129449;23;20462;-78
2023/08/09 12:22:00;;;;;;;3.10;2.80;;;25.10;47.40;;;;;;6208016;23;20473;-77
2023/08/09 12:27:43;;;;;;;6.03;5.43;;;25.30;47.90;;;;;;6194103;23;20444;-77
2023/08/09 12:33:13;;;;;;;5.57;3.63;;;25.00;48.30;;;;;;6180126;23;20860;-76
2023/08/09 12:35:46;;;;;;;4.10;3.40;;;25.00;48.10;;;;;;6154525;23;20371;-78
2023/08/09 12:38:38;;;;;;;5.13;3.53;;;24.90;48.20;;;;;;6119544;23;20378;-76
2023/08/09 12:41:04;;;;;;;6.57;4.20;;;24.60;48.10;;;;;;6108912;23;20384;-76
2023/08/09 12:43:31;;;;;;;5.13;3.47;;;24.70;47.60;;;;;;6103143;23;20383;-77
2023/08/09 12:45:59;;;;;;;2.87;2.57;;;24.50;47.80;;;;;;6127177;23;20436;-78
2023/08/09 12:51:30;;;;;;;4.67;3.67;;;24.40;48.00;;;;;;6206168;23;20425;-76
2023/08/09 12:54:04;;;;;;;3.67;3.13;;;24.20;48.00;;;;;;6218889;23;20385;-77
2023/08/09 12:56:42;;;;;;;4.23;3.27;;;24.00;47.90;;;;;;6165707;23;20428;-75
2023/08/09 13:02:48;;;;;;;3.83;2.60;;;23.40;49.10;;;;;;6237011;23;20430;-75
2023/08/09 13:05:18;;;;;;;4.13;3.63;;;23.20;49.60;;;;;;6190721;23;20365;-77
2023/08/09 13:07:44;;;;;;;5.93;2.93;;;23.10;49.90;;;;;;6187993;23;20376;-78
2023/08/09 13:10:10;;;;;;;3.77;3.23;;;23.00;49.80;;;;;;6190160;23;20401;-75
2023/08/09 13:12:36;;;;;;;4.37;3.17;;;23.00;49.40;;;;;;6190904;23;20134;-77
2023/08/09 13:15:10;;;;;;;3.90;3.53;;;22.80;49.30;;;;;;6215326;23;20384;-76
2023/08/09 13:17:43;;;;;;;4.87;3.80;;;22.70;49.70;;;;;;6101957;23;20439;-77
2023/08/09 13:22:45;;;;;;;3.03;2.33;;;23.10;49.40;;;;;;6182608;23;20529;-78
2023/08/09 13:58:57;;;;;;;3.80;2.73;;;22.70;49.60;;;;;;6179752;23;20437;-76
2023/08/09 14:02:33;;;;;;;3.90;2.33;;;22.60;49.90;;;;;;6153375;23;20400;-78
2023/08/09 14:08:17;;;;;;;3.40;2.50;;;22.50;49.90;;;;;;6162856;22;20452;-79
2023/08/09 14:11:01;;;;;;;4.43;2.53;;;22.50;50.30;;;;;;6154802;23;20497;-76
2023/08/09 14:13:46;;;;;;;25.30;6.70;;;22.40;50.70;;;;;;6158053;23;20442;-79
2023/08/09 14:16:50;;;;;;;2.90;1.97;;;22.30;50.70;;;;;;6137969;23;20422;-80
2023/08/09 15:20:42;;;;;;;2.37;2.10;;;23.00;48.40;;;;;;6148355;23;20437;-78
2023/08/09 15:36:19;;;;;;;3.23;2.40;;;23.20;47.90;;;;;;6212478;23;20449;-76
2023/08/09 16:13:12;;;;;;;4.37;3.33;;;22.60;49.10;;;;;;6207329;23;20432;-79
2023/08/09 16:26:41;;;;;;;3.23;2.50;;;23.10;49.10;;;;;;6181006;23;20446;-78
2023/08/09 16:32:33;;;;;;;3.40;2.70;;;23.10;48.00;;;;;;6169451;23;20452;-77
2023/08/09 16:35:03;;;;;;;3.33;2.73;;;23.10;48.20;;;;;;6163787;23;20405;-77
2023/08/09 16:37:34;;;;;;;3.70;2.50;;;23.10;48.40;;;;;;6140254;23;20426;-78
2023/08/09 16:40:13;;;;;;;2.53;2.33;;;23.00;49.00;;;;;;6158418;23;20390;-78
2023/08/09 16:42:54;;;;;;;5.90;3.30;;;23.00;49.30;;;;;;6159200;23;20370;-76
2023/08/09 16:48:11;;;;;;;5.03;3.07;;;22.80;49.90;;;;;;6193116;23;20505;-77
2023/08/09 16:50:37;;;;;;;3.20;2.53;;;22.60;49.80;;;;;;6130065;23;20433;-76
2023/08/09 16:53:18;;;;;;;2.83;2.63;;;22.50;49.90;;;;;;6144041;23;20374;-77
2023/08/09 16:56:22;;;;;;;4.53;2.87;;;22.40;50.20;;;;;;6124140;23;20360;-78
2023/08/09 17:04:29;;;;;;;4.23;3.10;;;22.20;50.50;;;;;;6212722;23;20424;-77
2023/08/09 17:07:06;;;;;;;4.20;3.00;;;22.30;50.50;;;;;;6188042;23;20366;-78
2023/08/09 17:09:32;;;;;;;4.03;2.87;;;22.40;50.40;;;;;;6119304;23;20458;-78
2023/08/09 17:12:29;;;;;;;2.90;2.60;;;22.50;50.20;;;;;;6181492;23;20479;-78
2023/08/09 17:17:47;;;;;;;5.57;4.00;;;22.40;50.20;;;;;;6216620;23;20496;-77
2023/08/09 17:20:14;;;;;;;3.60;3.30;;;22.40;50.10;;;;;;6163760;23;20393;-78
2023/08/09 17:22:43;;;;;;;6.47;3.10;;;22.30;50.10;;;;;;6187828;23;20145;-78
2023/08/09 17:25:13;;;;;;;3.23;2.93;;;22.20;50.10;;;;;;6163690;23;20468;-77